Flat Creek, New York
Current Conditions -  °F | °C
As of 10:15 AM on Thursday 23 Oct 2014 (Local Time) from KNY0 Reporting Station
Overcast Overcast  
Wind Chill: 42°   Ceiling: 800
Heat Index: 44°   Visibility: 1.7mi
Dew Point: 44°   Wind: 5mph
Humidity: 98%   Direction: 270°W
Pressure: 29.87"   Gusts: NA
Location:  42.8548°N, 74.5942°W
Report Text: KNY0 231415Z AUTO 27004KT 1 3/4SM SCT002 BKN008 OVC013 07/07 A2987 RMK AO2 P0002 T00690066
Loading
Personal Weather Stations






























Interactive Weather Map
Tropical Storm Tracking
New forecast layout! Learn more

10-Day Weather Forecast

Advertisements
Track Severe Weather on mobile